Search METAR Data

METAR Data for ENTC:

ENTC 241450Z 01007KT 9999 FEW039 SCT050 06/M02 Q1010 NOSIG RMK WIND 2600FT 17013KT